sensor_id;sensor_type;location;lat;lon;timestamp;P1;durP1;ratioP1;P2;durP2;ratioP2
84788;SDS011;75022;50.788;20.620;2023-12-20T00:00:07;9.41;;;8.74;;
84788;SDS011;75022;50.788;20.620;2023-12-20T00:07:09;9.89;;;9.180000000000001;;
84788;SDS011;75022;50.788;20.620;2023-12-20T00:14:06;10.21;;;9.48;;
84788;SDS011;75022;50.788;20.620;2023-12-20T00:21:08;10.77;;;10.0;;
84788;SDS011;75022;50.788;20.620;2023-12-20T00:28:02;11.08;;;10.19;;
84788;SDS011;75022;50.788;20.620;2023-12-20T00:35:05;11.35;;;10.49;;
84788;SDS011;75022;50.788;20.620;2023-12-20T00:42:06;11.81;;;10.969999999999999;;
84788;SDS011;75022;50.788;20.620;2023-12-20T00:49:03;12.07;;;11.270000000000001;;
84788;SDS011;75022;50.788;20.620;2023-12-20T00:56:02;12.52;;;11.58;;
84788;SDS011;75022;50.788;20.620;2023-12-20T01:00:07;12.56;;;11.59;;
84788;SDS011;75022;50.788;20.620;2023-12-20T01:07:06;12.81;;;11.91;;
84788;SDS011;75022;50.788;20.620;2023-12-20T01:14:05;12.93;;;12.02;;
84788;SDS011;75022;50.788;20.620;2023-12-20T01:21:08;12.96;;;12.13;;
84788;SDS011;75022;50.788;20.620;2023-12-20T01:28:09;13.18;;;12.22;;
84788;SDS011;75022;50.788;20.620;2023-12-20T01:35:03;13.25;;;12.36;;
84788;SDS011;75022;50.788;20.620;2023-12-20T01:42:07;13.37;;;12.43;;
84788;SDS011;75022;50.788;20.620;2023-12-20T01:49:04;13.43;;;12.469999999999999;;
84788;SDS011;75022;50.788;20.620;2023-12-20T01:56:09;13.350000000000001;;;12.469999999999999;;
84788;SDS011;75022;50.788;20.620;2023-12-20T02:00:10;13.41;;;12.489999999999998;;
84788;SDS011;75022;50.788;20.620;2023-12-20T02:07:02;13.58;;;12.53;;
84788;SDS011;75022;50.788;20.620;2023-12-20T02:14:02;13.69;;;12.61;;
84788;SDS011;75022;50.788;20.620;2023-12-20T02:21:11;14.26;;;13.17;;
84788;SDS011;75022;50.788;20.620;2023-12-20T02:28:09;14.31;;;13.229999999999999;;
84788;SDS011;75022;50.788;20.620;2023-12-20T02:35:05;14.39;;;13.42;;
84788;SDS011;75022;50.788;20.620;2023-12-20T02:42:04;15.030000000000001;;;13.93;;
84788;SDS011;75022;50.788;20.620;2023-12-20T02:49:03;15.100000000000001;;;14.0;;
84788;SDS011;75022;50.788;20.620;2023-12-20T02:56:09;15.66;;;14.5;;
84788;SDS011;75022;50.788;20.620;2023-12-20T03:00:08;15.65;;;14.49;;
84788;SDS011;75022;50.788;20.620;2023-12-20T03:07:05;15.77;;;14.56;;
84788;SDS011;75022;50.788;20.620;2023-12-20T03:14:02;15.82;;;14.729999999999999;;
84788;SDS011;75022;50.788;20.620;2023-12-20T03:21:05;15.620000000000001;;;14.399999999999999;;
84788;SDS011;75022;50.788;20.620;2023-12-20T03:28:08;15.54;;;14.34;;
84788;SDS011;75022;50.788;20.620;2023-12-20T03:35:09;15.5;;;14.27;;
84788;SDS011;75022;50.788;20.620;2023-12-20T03:42:09;15.110000000000001;;;14.13;;
84788;SDS011;75022;50.788;20.620;2023-12-20T03:49:02;15.110000000000001;;;14.06;;
84788;SDS011;75022;50.788;20.620;2023-12-20T03:56:09;15.01;;;13.969999999999999;;
84788;SDS011;75022;50.788;20.620;2023-12-20T04:00:02;14.979999999999999;;;13.97;;
84788;SDS011;75022;50.788;20.620;2023-12-20T04:07:07;15.059999999999999;;;13.93;;
84788;SDS011;75022;50.788;20.620;2023-12-20T04:14:05;14.85;;;13.85;;
84788;SDS011;75022;50.788;20.620;2023-12-20T04:21:04;14.86;;;13.76;;
84788;SDS011;75022;50.788;20.620;2023-12-20T04:28:04;14.91;;;13.790000000000001;;
84788;SDS011;75022;50.788;20.620;2023-12-20T04:35:02;14.8;;;13.76;;
84788;SDS011;75022;50.788;20.620;2023-12-20T04:42:07;14.489999999999998;;;13.510000000000002;;
84788;SDS011;75022;50.788;20.620;2023-12-20T04:49:06;14.44;;;13.31;;
84788;SDS011;75022;50.788;20.620;2023-12-20T04:56:02;13.879999999999999;;;12.94;;
84788;SDS011;75022;50.788;20.620;2023-12-20T05:00:01;13.92;;;12.91;;
84788;SDS011;75022;50.788;20.620;2023-12-20T05:07:02;13.41;;;12.52;;
84788;SDS011;75022;50.788;20.620;2023-12-20T05:14:03;13.25;;;12.41;;
84788;SDS011;75022;50.788;20.620;2023-12-20T05:21:05;13.16;;;12.22;;
84788;SDS011;75022;50.788;20.620;2023-12-20T05:28:03;13.219999999999999;;;12.21;;
84788;SDS011;75022;50.788;20.620;2023-12-20T05:35:08;13.16;;;12.239999999999998;;
84788;SDS011;75022;50.788;20.620;2023-12-20T05:42:07;13.27;;;12.33;;
84788;SDS011;75022;50.788;20.620;2023-12-20T05:49:02;13.459999999999999;;;12.44;;
84788;SDS011;75022;50.788;20.620;2023-12-20T05:56:07;13.860000000000001;;;12.879999999999999;;
84788;SDS011;75022;50.788;20.620;2023-12-20T06:00:09;13.81;;;12.899999999999999;;
84788;SDS011;75022;50.788;20.620;2023-12-20T06:07:04;14.38;;;13.45;;
84788;SDS011;75022;50.788;20.620;2023-12-20T06:14:04;14.56;;;13.67;;
84788;SDS011;75022;50.788;20.620;2023-12-20T06:21:02;15.17;;;14.14;;
84788;SDS011;75022;50.788;20.620;2023-12-20T06:28:02;15.26;;;14.209999999999999;;
84788;SDS011;75022;50.788;20.620;2023-12-20T06:35:10;15.37;;;14.33;;
84788;SDS011;75022;50.788;20.620;2023-12-20T06:42:03;16.16;;;15.120000000000001;;
84788;SDS011;75022;50.788;20.620;2023-12-20T06:49:06;16.19;;;15.309999999999999;;
84788;SDS011;75022;50.788;20.620;2023-12-20T06:56:02;16.369999999999997;;;15.38;;
84788;SDS011;75022;50.788;20.620;2023-12-20T07:00:07;16.38;;;15.440000000000001;;
84788;SDS011;75022;50.788;20.620;2023-12-20T07:07:06;16.59;;;15.54;;
84788;SDS011;75022;50.788;20.620;2023-12-20T07:14:06;16.919999999999998;;;15.770000000000001;;
84788;SDS011;75022;50.788;20.620;2023-12-20T07:21:05;17.31;;;15.95;;
84788;SDS011;75022;50.788;20.620;2023-12-20T07:28:03;18.21;;;16.6;;
84788;SDS011;75022;50.788;20.620;2023-12-20T07:35:06;18.77;;;17.11;;
84788;SDS011;75022;50.788;20.620;2023-12-20T07:42:06;19.16;;;17.45;;
84788;SDS011;75022;50.788;20.620;2023-12-20T07:49:07;19.96;;;17.86;;
84788;SDS011;75022;50.788;20.620;2023-12-20T07:56:06;21.11;;;18.650000000000002;;
84788;SDS011;75022;50.788;20.620;2023-12-20T08:00:05;21.049999999999997;;;18.6;;
84788;SDS011;75022;50.788;20.620;2023-12-20T08:07:02;21.9;;;19.26;;
84788;SDS011;75022;50.788;20.620;2023-12-20T08:14:02;21.58;;;19.080000000000002;;
84788;SDS011;75022;50.788;20.620;2023-12-20T08:21:10;21.45;;;19.02;;
84788;SDS011;75022;50.788;20.620;2023-12-20T08:28:07;20.71;;;18.61;;
84788;SDS011;75022;50.788;20.620;2023-12-20T08:35:06;20.22;;;18.12;;
84788;SDS011;75022;50.788;20.620;2023-12-20T08:42:08;19.040000000000003;;;17.23;;
84788;SDS011;75022;50.788;20.620;2023-12-20T08:49:09;18.020000000000003;;;16.380000000000003;;
84788;SDS011;75022;50.788;20.620;2023-12-20T08:56:08;16.0;;;14.88;;
84788;SDS011;75022;50.788;20.620;2023-12-20T09:00:01;16.15;;;14.93;;
84788;SDS011;75022;50.788;20.620;2023-12-20T09:07:03;14.11;;;13.16;;
84788;SDS011;75022;50.788;20.620;2023-12-20T09:14:06;13.399999999999999;;;12.549999999999999;;
84788;SDS011;75022;50.788;20.620;2023-12-20T09:21:08;12.06;;;11.31;;
84788;SDS011;75022;50.788;20.620;2023-12-20T09:28:05;11.61;;;10.81;;
84788;SDS011;75022;50.788;20.620;2023-12-20T09:35:03;11.37;;;10.58;;
84788;SDS011;75022;50.788;20.620;2023-12-20T09:42:03;11.020000000000001;;;10.32;;
84788;SDS011;75022;50.788;20.620;2023-12-20T09:49:03;10.84;;;10.129999999999999;;
84788;SDS011;75022;50.788;20.620;2023-12-20T09:56:09;11.049999999999999;;;10.35;;
84788;SDS011;75022;50.788;20.620;2023-12-20T10:00:13;11.01;;;10.370000000000001;;
84788;SDS011;75022;50.788;20.620;2023-12-20T10:07:02;10.78;;;10.24;;
84788;SDS011;75022;50.788;20.620;2023-12-20T10:14:02;11.1;;;10.459999999999999;;
84788;SDS011;75022;50.788;20.620;2023-12-20T10:21:05;10.92;;;10.26;;
84788;SDS011;75022;50.788;20.620;2023-12-20T10:28:12;10.45;;;9.9;;
84788;SDS011;75022;50.788;20.620;2023-12-20T10:35:02;9.88;;;9.27;;
84788;SDS011;75022;50.788;20.620;2023-12-20T10:42:05;8.62;;;8.14;;
84788;SDS011;75022;50.788;20.620;2023-12-20T10:49:06;8.03;;;7.54;;
84788;SDS011;75022;50.788;20.620;2023-12-20T10:56:05;7.23;;;6.76;;
84788;SDS011;75022;50.788;20.620;2023-12-20T11:00:06;7.19;;;6.75;;
84788;SDS011;75022;50.788;20.620;2023-12-20T11:07:04;7.28;;;6.84;;
84788;SDS011;75022;50.788;20.620;2023-12-20T11:14:25;6.7;;;6.27;;
84788;SDS011;75022;50.788;20.620;2023-12-20T11:21:06;6.279999999999999;;;5.859999999999999;;
84788;SDS011;75022;50.788;20.620;2023-12-20T11:28:13;6.22;;;5.88;;
84788;SDS011;75022;50.788;20.620;2023-12-20T11:35:25;6.21;;;5.79;;
84788;SDS011;75022;50.788;20.620;2023-12-20T11:42:11;6.220000000000001;;;5.859999999999999;;
84788;SDS011;75022;50.788;20.620;2023-12-20T11:49:09;6.19;;;5.8;;
84788;SDS011;75022;50.788;20.620;2023-12-20T11:56:04;6.34;;;5.93;;
84788;SDS011;75022;50.788;20.620;2023-12-20T12:00:09;6.279999999999999;;;5.8999999999999995;;
84788;SDS011;75022;50.788;20.620;2023-12-20T12:07:03;5.59;;;5.22;;
84788;SDS011;75022;50.788;20.620;2023-12-20T12:14:08;5.31;;;4.94;;
84788;SDS011;75022;50.788;20.620;2023-12-20T12:21:07;5.1499999999999995;;;4.81;;
84788;SDS011;75022;50.788;20.620;2023-12-20T12:28:07;5.02;;;4.72;;
84788;SDS011;75022;50.788;20.620;2023-12-20T12:35:07;5.13;;;4.819999999999999;;
84788;SDS011;75022;50.788;20.620;2023-12-20T12:42:07;4.8999999999999995;;;4.62;;
84788;SDS011;75022;50.788;20.620;2023-12-20T12:49:06;4.84;;;4.57;;
84788;SDS011;75022;50.788;20.620;2023-12-20T12:56:02;4.619999999999999;;;4.319999999999999;;
84788;SDS011;75022;50.788;20.620;2023-12-20T13:00:12;4.609999999999999;;;4.33;;
84788;SDS011;75022;50.788;20.620;2023-12-20T13:07:05;4.58;;;4.28;;
84788;SDS011;75022;50.788;20.620;2023-12-20T13:14:03;4.699999999999999;;;4.35;;
84788;SDS011;75022;50.788;20.620;2023-12-20T13:21:08;4.75;;;4.39;;
84788;SDS011;75022;50.788;20.620;2023-12-20T13:28:03;4.9399999999999995;;;4.5600000000000005;;
84788;SDS011;75022;50.788;20.620;2023-12-20T13:35:09;5.069999999999999;;;4.64;;
84788;SDS011;75022;50.788;20.620;2023-12-20T13:42:07;5.53;;;5.09;;
84788;SDS011;75022;50.788;20.620;2023-12-20T13:49:02;5.78;;;5.24;;
84788;SDS011;75022;50.788;20.620;2023-12-20T13:56:05;6.14;;;5.64;;
84788;SDS011;75022;50.788;20.620;2023-12-20T14:00:02;6.1899999999999995;;;5.7299999999999995;;
84788;SDS011;75022;50.788;20.620;2023-12-20T14:07:11;6.75;;;6.22;;
84788;SDS011;75022;50.788;20.620;2023-12-20T14:14:06;7.0;;;6.45;;
84788;SDS011;75022;50.788;20.620;2023-12-20T14:21:03;7.54;;;6.989999999999999;;
84788;SDS011;75022;50.788;20.620;2023-12-20T14:28:02;7.59;;;7.08;;
84788;SDS011;75022;50.788;20.620;2023-12-20T14:31:27;7.75;;;7.25;;
84788;SDS011;75022;50.788;20.620;2023-12-20T14:40:02;7.909999999999999;;;7.45;;
84788;SDS011;75022;50.788;20.620;2023-12-20T14:50:01;8.16;;;7.65;;
84788;SDS011;75022;50.788;20.620;2023-12-20T15:00:03;8.31;;;7.8;;
84788;SDS011;75022;50.788;20.620;2023-12-20T15:09:37;9.08;;;8.53;;
84788;SDS011;75022;50.788;20.620;2023-12-20T15:10:05;9.02;;;8.479999999999999;;
84788;SDS011;75022;50.788;20.620;2023-12-20T15:11:46;10.11;;;9.39;;
84788;SDS011;75022;50.788;20.620;2023-12-20T15:11:55;10.06;;;9.4;;
84788;SDS011;75022;50.788;20.620;2023-12-20T15:18:07;10.52;;;9.72;;
84788;SDS011;75022;50.788;20.620;2023-12-20T15:20:04;10.45;;;9.66;;
84788;SDS011;75022;50.788;20.620;2023-12-20T15:30:03;10.95;;;10.1;;
84788;SDS011;75022;50.788;20.620;2023-12-20T15:32:26;11.38;;;10.48;;
84788;SDS011;75022;50.788;20.620;2023-12-20T15:40:04;11.629999999999999;;;10.790000000000001;;
84788;SDS011;75022;50.788;20.620;2023-12-20T15:50:04;11.36;;;10.54;;
84788;SDS011;75022;50.788;20.620;2023-12-20T16:00:10;11.32;;;10.5;;
84788;SDS011;75022;50.788;20.620;2023-12-20T16:08:33;10.700000000000001;;;9.92;;
84788;SDS011;75022;50.788;20.620;2023-12-20T16:12:47;10.26;;;9.52;;
84788;SDS011;75022;50.788;20.620;2023-12-20T16:20:02;10.01;;;9.41;;
84788;SDS011;75022;50.788;20.620;2023-12-20T16:40:05;10.39;;;9.68;;
84788;SDS011;75022;50.788;20.620;2023-12-20T16:40:37;10.379999999999999;;;9.62;;
84788;SDS011;75022;50.788;20.620;2023-12-20T16:47:07;11.540000000000001;;;10.64;;
84788;SDS011;75022;50.788;20.620;2023-12-20T16:50:10;11.530000000000001;;;10.63;;
84788;SDS011;75022;50.788;20.620;2023-12-20T17:00:08;11.79;;;10.88;;
84788;SDS011;75022;50.788;20.620;2023-12-20T17:10:11;12.389999999999999;;;11.46;;
84788;SDS011;75022;50.788;20.620;2023-12-20T17:31:02;13.75;;;12.69;;
84788;SDS011;75022;50.788;20.620;2023-12-20T17:50:03;16.78;;;14.86;;
84788;SDS011;75022;50.788;20.620;2023-12-20T17:57:00;19.740000000000002;;;17.14;;
84788;SDS011;75022;50.788;20.620;2023-12-20T17:57:28;19.7;;;17.1;;
84788;SDS011;75022;50.788;20.620;2023-12-20T17:58:05;19.77;;;17.080000000000002;;
84788;SDS011;75022;50.788;20.620;2023-12-20T18:00:20;19.71;;;17.020000000000003;;
84788;SDS011;75022;50.788;20.620;2023-12-20T18:09:53;22.689999999999998;;;19.23;;
84788;SDS011;75022;50.788;20.620;2023-12-20T18:17:57;25.68;;;21.509999999999998;;
84788;SDS011;75022;50.788;20.620;2023-12-20T18:20:02;25.63;;;21.65;;
84788;SDS011;75022;50.788;20.620;2023-12-20T18:30:03;28.36;;;23.419999999999998;;
84788;SDS011;75022;50.788;20.620;2023-12-20T18:50:02;29.08;;;23.86;;
84788;SDS011;75022;50.788;20.620;2023-12-20T19:00:07;28.81;;;23.540000000000003;;
84788;SDS011;75022;50.788;20.620;2023-12-20T19:10:02;29.830000000000002;;;24.26;;
84788;SDS011;75022;50.788;20.620;2023-12-20T19:20:03;30.48;;;24.709999999999997;;
84788;SDS011;75022;50.788;20.620;2023-12-20T19:40:03;29.830000000000002;;;24.400000000000002;;
84788;SDS011;75022;50.788;20.620;2023-12-20T19:50:05;29.27;;;23.95;;
84788;SDS011;75022;50.788;20.620;2023-12-20T20:00:06;27.98;;;23.130000000000003;;
84788;SDS011;75022;50.788;20.620;2023-12-20T20:10:07;25.689999999999998;;;21.71;;
84788;SDS011;75022;50.788;20.620;2023-12-20T20:20:07;23.29;;;20.04;;
84788;SDS011;75022;50.788;20.620;2023-12-20T20:30:05;21.57;;;18.97;;
84788;SDS011;75022;50.788;20.620;2023-12-20T20:40:02;19.79;;;17.79;;
84788;SDS011;75022;50.788;20.620;2023-12-20T20:50:03;18.26;;;16.78;;
84788;SDS011;75022;50.788;20.620;2023-12-20T21:00:05;17.92;;;16.46;;
84788;SDS011;75022;50.788;20.620;2023-12-20T21:10:02;17.51;;;16.14;;
84788;SDS011;75022;50.788;20.620;2023-12-20T21:30:04;16.52;;;15.33;;
84788;SDS011;75022;50.788;20.620;2023-12-20T21:40:04;16.4;;;15.12;;
84788;SDS011;75022;50.788;20.620;2023-12-20T21:50:05;16.47;;;15.18;;
84788;SDS011;75022;50.788;20.620;2023-12-20T22:00:06;15.28;;;14.19;;
84788;SDS011;75022;50.788;20.620;2023-12-20T22:10:07;14.91;;;13.62;;
84788;SDS011;75022;50.788;20.620;2023-12-20T22:30:13;12.389999999999999;;;11.24;;
84788;SDS011;75022;50.788;20.620;2023-12-20T22:40:04;11.020000000000001;;;9.99;;
84788;SDS011;75022;50.788;20.620;2023-12-20T23:00:09;8.989999999999998;;;8.11;;
84788;SDS011;75022;50.788;20.620;2023-12-20T23:20:01;7.3;;;6.819999999999999;;
84788;SDS011;75022;50.788;20.620;2023-12-20T23:30:04;7.17;;;6.6499999999999995;;
84788;SDS011;75022;50.788;20.620;2023-12-20T23:40:09;7.05;;;6.62;;
84788;SDS011;75022;50.788;20.620;2023-12-20T23:50:02;7.01;;;6.55;;
